Terminal Aerodrome Forecast
Issued by NWS

Current Version | Previous Version | Text Only | Print | Product List | Glossary On
Versions: 1 2 3 4 5 6 7 8 9 10 11 12 13 14 15
000
FTUS44 KLZK 100500 RRA
TAFLLQ
TAF
KLLQ 100540Z 1006/1106 VRB03KT P6SM VCTS SCT040CB BKN100
     FM101200 10005KT P6SM VCTS BKN040CB
     FM101800 12006KT P6SM SCT050 PROB30 1018/1024 -TSRA BKN050CB
     FM110000 VRB03KT P6SM BKN250=

USA.gov is the U.S. government's official web portal to all federal, state and local government web resources and services.